ELLXEDFH

Guest
Details From ELLX - Luxembourg
To EDFH - Frankfurt Hahn
Flight Number -
Tags generated
Created
Modified
Stats Distance 45 nm / 83 km
Max Altitude 4,800 ft / 1,463 m
Waypoints 3
Social Downloads 3
Likes 0
Share VATSIM

Download

Looking for another format? Having issues loading an existing format? Contact us
Advertisement - Login to hide

Notes

Basic altitude profile: - Ascent Rate: 2500ft/min - Ascent Speed: 250kts - Cruise Altitude: 35000ft - Cruise Speed: 420kts - Descent Rate: 1500ft/min - Descent Speed: 250kts Options: - Use NATs: yes - Use PACOTS: yes - Use low airways: yes - Use high airways: yes

Route

ELLX PITES EDFH

ID Type Via Altitude Latitude Longitude Leg Dist Tot Dist Heading (true) Name
O ELLX APT - 0 ft / 0 m 49.62660˚ 6.21151˚ - 0 nm - Luxembourg
PITES FIX - 4,800 ft / 1,463 m 49.72861˚ 6.51944˚ 13 nm 13 nm 63° / 63° -
O EDFH APT - 0 ft / 0 m 49.94581˚ 7.26108˚ 31 nm 44 nm 65° / 66° Frankfurt Hahn

Altitude Profile

Advertisement - Login to hide

ELLX

Details ICAO ELLX (LUX)
Name Luxembourg
Region Luxembourg
Timezone Europe/Luxembourg (UTC+2.0)
Stats Elevation 1,158 ft / 353 m (AMSL)
Location 49.626599° 6.211506°
Runways 1
Magnetic Variation 1.746° E

METAR

ELLX 202120Z 08009KT 050V120 6000 TSRA FEW035CB BKN050 12/11 Q1019 TEMPO 4000 TSRA BKN030CB

Decode

TAF

TAF ELLX 201700Z 2018/2124 04010KT 9999 BKN035 TEMPO 2018/2024 4500 SHRA SCT030CB BECMG 2106/2110 12007KT PROB40 TEMPO 2112/2118 -SHRA SCT030TCU TEMPO 2118/2124 VRB02KT

Decode

Departure Runways

ID Width Length Bearing (true) Bearing (mag) Surface Threshold Offset Overrun Length
06 197 ft / 60 m 13,135 ft / 4,004 m 60.14° 58.39° Asphalt 0 ft / 0 m 0 ft / 0 m
24 197 ft / 60 m 13,135 ft / 4,004 m 240.18° 238.43° Asphalt 0 ft / 0 m 180 ft / 55 m

EDFH

Details ICAO EDFH (HHN)
Name Frankfurt Hahn
Region Germany - Civil
Timezone Europe/Berlin (UTC+2.0)
Stats Elevation 1,649 ft / 503 m (AMSL)
Location 49.945808° 7.261082°
Runways 1
Magnetic Variation 2.038° E

METAR

EDFH 202120Z 17006KT 9999 -RA SCT045 12/10 Q1019

Decode

TAF

TAF EDFH 201700Z 2018/2118 08008KT 9999 FEW030 PROB30 TEMPO 2018/2102 4000 SHRA BKN008 BKN015TCU

Decode

Destination Runways

ID Width Length Bearing (true) Bearing (mag) Surface Threshold Offset Overrun Length
03 148 ft / 45 m 12,457 ft / 3,797 m 32.37° 30.33° Asphalt 3,461 ft / 1,055 m 0 ft / 0 m
21 148 ft / 45 m 12,457 ft / 3,797 m 212.39° 210.35° Asphalt 984 ft / 300 m 0 ft / 0 m

Approach Navaids

Runway Type Ident Frequency Range Bearing (true) Bearing (mag) Slope Elevation
03 Localiser IHAE 109.30 MHz 18 nm / 33 km 32.39° 30.35° - 1,595 ft / 486 m (AMSL)
03 Glidescope IHAE 109.30 MHz 10 nm / 19 km 32.39° 30.35° 3.00° 1,648 ft / 502 m (AMSL)
21 Localiser IHAW 111.30 MHz 18 nm / 33 km 212.38° 210.34° - 1,648 ft / 502 m (AMSL)
21 Glidescope IHAW 111.30 MHz 10 nm / 19 km 212.39° 210.35° 3.00° 1,600 ft / 488 m (AMSL)

Popular Alternatives